Time;durP1;ratioP1;P1;durP2;ratioP2;P2;SDS_P1;SDS_P2;PMS_P1;PMS_P2;Temp;Humidity;BMP_temperature;BMP_pressure;BME280_temperature;BME280_humidity;BME280_pressure;Samples;Min_cycle;Max_cycle;Signal;HPM_P1;HPM_P2
2023/10/29 00:00:08;;;;;;;9.45;2.10;;;;;;;10.67;100.00;97005.44;5022796;28;20050;-48
2023/10/29 00:02:34;;;;;;;8.50;2.17;;;;;;;10.67;100.00;97007.44;5007535;28;20447;-45
2023/10/29 00:05:02;;;;;;;9.45;2.35;;;;;;;10.68;100.00;97001.47;5006569;28;20045;-44
2023/10/29 00:07:29;;;;;;;18.05;4.15;;;;;;;10.70;100.00;97006.53;5007336;28;20736;-45
2023/10/29 00:09:55;;;;;;;6.88;1.70;;;;;;;10.72;100.00;97009.66;5007750;28;20033;-44
2023/10/29 00:12:22;;;;;;;5.53;1.98;;;;;;;10.73;100.00;97006.47;5007348;28;20045;-46
2023/10/29 00:14:49;;;;;;;10.80;2.42;;;;;;;10.73;100.00;97009.22;5007412;28;20046;-44
2023/10/29 00:17:16;;;;;;;10.23;1.95;;;;;;;10.72;100.00;97002.13;5007194;28;20057;-45
2023/10/29 00:19:43;;;;;;;13.88;2.70;;;;;;;10.72;100.00;97007.66;5007927;28;20045;-44
2023/10/29 00:22:11;;;;;;;12.55;2.15;;;;;;;10.72;100.00;97002.13;5008015;28;20060;-44
2023/10/29 00:24:38;;;;;;;44.33;3.90;;;;;;;10.74;100.00;96993.41;5007509;28;20591;-43
2023/10/29 00:27:05;;;;;;;6.30;1.90;;;;;;;10.75;100.00;97011.56;5002106;28;20124;-44
2023/10/29 00:29:32;;;;;;;7.07;1.98;;;;;;;10.76;100.00;97007.56;4998838;28;20090;-44
2023/10/29 00:31:58;;;;;;;10.98;2.47;;;;;;;10.76;100.00;97002.03;5007529;28;20037;-45
2023/10/29 00:34:25;;;;;;;9.32;1.35;;;;;;;10.75;100.00;97008.81;5007287;28;20042;-44
2023/10/29 00:36:52;;;;;;;5.10;1.50;;;;;;;10.76;100.00;97013.88;4999232;28;20045;-43
2023/10/29 00:39:19;;;;;;;8.40;1.92;;;;;;;10.78;100.00;97010.66;5022108;28;20084;-44
2023/10/29 00:41:45;;;;;;;12.30;1.95;;;;;;;10.80;100.00;97011.78;5006665;28;20049;-45
2023/10/29 00:44:12;;;;;;;8.90;1.80;;;;;;;10.82;100.00;97016.91;5006883;28;20038;-47
2023/10/29 00:46:40;;;;;;;9.80;1.63;;;;;;;10.83;100.00;97012.91;5007181;28;20044;-44
2023/10/29 00:49:08;;;;;;;7.43;1.75;;;;;;;10.84;100.00;97022.75;5007341;28;20084;-44
2023/10/29 00:51:35;;;;;;;8.98;1.65;;;;;;;10.85;100.00;97013.25;5007090;28;20042;-44
2023/10/29 00:54:02;;;;;;;7.78;2.08;;;;;;;10.87;100.00;97008.06;5007322;28;20647;-44
2023/10/29 00:56:29;;;;;;;21.75;5.72;;;;;;;10.88;100.00;97020.69;5005951;28;20399;-44
2023/10/29 00:58:56;;;;;;;6.35;2.08;;;;;;;10.89;100.00;97022.22;5005209;28;20100;-45
2023/10/29 01:01:24;;;;;;;3.75;2.20;;;;;;;10.86;100.00;97023.88;5004334;28;20111;-44
2023/10/29 01:03:51;;;;;;;12.20;1.58;;;;;;;10.85;100.00;97027.09;5007138;28;20045;-43
2023/10/29 01:06:18;;;;;;;6.35;1.25;;;;;;;10.85;100.00;97032.63;5006387;28;20052;-44
2023/10/29 01:08:45;;;;;;;1.85;0.40;;;;;;;10.81;100.00;97035.47;5006787;28;20487;-46
2023/10/29 01:11:12;;;;;;;1.90;0.90;;;;;;;10.74;100.00;97037.66;4994126;28;20046;-44
2023/10/29 01:13:39;;;;;;;1.05;0.28;;;;;;;10.67;100.00;97038.63;5006573;28;20042;-49
2023/10/29 01:16:06;;;;;;;1.30;0.20;;;;;;;10.61;100.00;97045.13;4993974;28;20141;-46
2023/10/29 01:18:33;;;;;;;2.53;0.30;;;;;;;10.58;100.00;97051.53;5006513;28;20042;-44
2023/10/29 01:21:00;;;;;;;1.85;0.30;;;;;;;10.53;100.00;97043.75;5006709;28;20123;-44
2023/10/29 01:23:28;;;;;;;0.25;0.20;;;;;;;10.48;100.00;97041.53;5006285;28;20513;-44
2023/10/29 01:25:57;;;;;;;0.35;0.30;;;;;;;10.46;100.00;97058.53;5006143;28;20034;-45
2023/10/29 01:28:24;;;;;;;0.93;0.50;;;;;;;10.48;100.00;97047.06;5005649;28;20066;-46
2023/10/29 01:30:51;;;;;;;0.30;0.13;;;;;;;10.42;100.00;97054.31;5005497;28;20399;-45
2023/10/29 01:33:17;;;;;;;0.20;0.20;;;;;;;10.38;100.00;97055.16;5006222;28;20522;-44
2023/10/29 01:35:44;;;;;;;0.10;0.10;;;;;;;10.34;100.00;97060.03;5005708;28;20491;-45
2023/10/29 01:38:11;;;;;;;0.15;0.10;;;;;;;10.30;100.00;97053.00;5006293;28;20042;-44
2023/10/29 01:40:38;;;;;;;0.95;0.38;;;;;;;10.24;100.00;97063.84;5000457;28;20042;-45
2023/10/29 01:43:05;;;;;;;2.90;0.45;;;;;;;10.17;100.00;97061.22;5006012;28;20038;-45
2023/10/29 01:45:31;;;;;;;3.00;0.40;;;;;;;10.17;100.00;97075.03;5006316;28;20498;-43
2023/10/29 01:47:58;;;;;;;0.10;0.10;;;;;;;10.16;100.00;97070.75;5006135;28;20133;-43
2023/10/29 01:50:25;;;;;;;0.70;0.50;;;;;;;10.13;100.00;97077.13;5006194;28;20431;-45
2023/10/29 01:52:53;;;;;;;0.73;0.47;;;;;;;10.10;100.00;97072.44;5005713;28;21372;-43
2023/10/29 01:55:21;;;;;;;0.65;0.20;;;;;;;10.07;100.00;97078.81;5004881;28;20037;-44
2023/10/29 01:57:47;;;;;;;0.25;0.20;;;;;;;10.03;100.00;97072.59;5005961;28;20488;-45
2023/10/29 02:00:15;;;;;;;0.82;0.30;;;;;;;10.00;100.00;97081.75;5006081;28;20038;-44
2023/10/29 02:02:42;;;;;;;1.15;0.20;;;;;;;9.97;100.00;97079.06;5004800;28;20221;-44
2023/10/29 02:05:09;;;;;;;0.10;0.10;;;;;;;9.90;100.00;97080.00;5006446;28;20057;-46
2023/10/29 02:07:36;;;;;;;0.57;0.28;;;;;;;9.88;100.00;97076.09;5005681;28;20104;-43
2023/10/29 02:10:04;;;;;;;0.10;0.10;;;;;;;9.84;100.00;97080.94;5006462;28;20108;-44
2023/10/29 02:12:31;;;;;;;1.08;0.20;;;;;;;9.82;100.00;97093.19;5005617;28;20053;-46
2023/10/29 02:14:58;;;;;;;0.80;0.43;;;;;;;9.79;100.00;97098.81;5006377;28;20046;-44
2023/10/29 02:17:27;;;;;;;0.93;0.10;;;;;;;9.74;100.00;97097.31;5006289;28;20050;-45
2023/10/29 02:19:55;;;;;;;0.10;0.10;;;;;;;9.68;100.00;97092.75;5010577;28;20042;-45
2023/10/29 02:22:23;;;;;;;0.10;0.10;;;;;;;9.67;100.00;97102.22;5008422;28;20432;-44
2023/10/29 02:24:50;;;;;;;0.10;0.10;;;;;;;9.63;100.00;97093.25;5008426;28;20049;-44
2023/10/29 02:27:17;;;;;;;0.45;0.20;;;;;;;9.59;100.00;97095.28;5009688;28;20137;-47
2023/10/29 02:29:45;;;;;;;0.25;0.25;;;;;;;9.58;100.00;97093.75;5006138;28;20051;-43
2023/10/29 02:32:12;;;;;;;0.50;0.15;;;;;;;9.53;100.00;97095.00;5009345;28;20053;-44
2023/10/29 02:34:39;;;;;;;0.40;0.20;;;;;;;9.50;100.00;97097.88;5009429;28;20037;-43
2023/10/29 02:37:05;;;;;;;0.70;0.20;;;;;;;9.45;100.00;97099.13;5009120;28;20052;-44
2023/10/29 02:39:32;;;;;;;0.35;0.22;;;;;;;9.42;100.00;97090.94;5009483;28;20053;-47
2023/10/29 02:41:59;;;;;;;0.30;0.25;;;;;;;9.42;100.00;97088.97;5001671;28;20038;-45
2023/10/29 02:44:26;;;;;;;0.15;0.15;;;;;;;9.42;100.00;97090.94;5008839;28;20070;-44
2023/10/29 02:46:53;;;;;;;0.45;0.38;;;;;;;9.41;100.00;97092.13;4997816;28;20137;-45
2023/10/29 02:49:20;;;;;;;1.88;0.50;;;;;;;9.36;100.00;97093.41;5007690;28;20484;-46
2023/10/29 02:51:46;;;;;;;0.65;0.40;;;;;;;9.34;100.00;97084.00;5008413;28;20669;-45
2023/10/29 02:54:13;;;;;;;1.95;0.57;;;;;;;9.29;100.00;97090.03;5007975;28;20041;-47
2023/10/29 02:56:40;;;;;;;1.13;0.60;;;;;;;9.24;100.00;97088.50;5008168;28;20050;-47
2023/10/29 02:59:09;;;;;;;0.55;0.55;;;;;;;9.25;100.00;97084.56;5008329;28;20045;-46
2023/10/29 03:01:36;;;;;;;0.60;0.50;;;;;;;9.24;100.00;97094.03;5120348;22;20071;-44
2023/10/29 03:04:05;;;;;;;3.15;0.60;;;;;;;9.22;100.00;97085.41;5048696;28;20044;-44
2023/10/29 03:06:32;;;;;;;0.80;0.50;;;;;;;9.19;100.00;97091.78;5048930;28;20525;-45
2023/10/29 03:08:58;;;;;;;0.40;0.40;;;;;;;9.18;100.00;97096.53;5047495;28;20033;-44
2023/10/29 03:11:25;;;;;;;1.20;0.43;;;;;;;9.19;100.00;97092.56;5047948;28;20103;-48
2023/10/29 03:13:52;;;;;;;0.70;0.55;;;;;;;9.17;100.00;97081.16;5047453;28;20534;-45
2023/10/29 03:16:19;;;;;;;2.22;0.60;;;;;;;9.14;100.00;97084.00;5047661;28;20494;-44
2023/10/29 03:18:47;;;;;;;0.57;0.38;;;;;;;9.14;100.00;97081.22;5048080;28;20057;-44
2023/10/29 03:21:17;;;;;;;1.05;0.63;;;;;;;9.12;100.00;97078.13;5048441;28;20052;-45
2023/10/29 03:23:44;;;;;;;1.88;0.73;;;;;;;9.09;100.00;97077.00;5047608;28;20830;-45
2023/10/29 03:26:11;;;;;;;0.65;0.50;;;;;;;9.05;100.00;97068.00;5045015;28;20053;-44
2023/10/29 03:28:39;;;;;;;2.08;0.75;;;;;;;9.00;100.00;97078.78;5047701;28;20177;-45
2023/10/29 03:31:24;;;;;;;0.52;0.50;;;;;;;8.96;100.00;97089.88;5048204;28;20041;-47
2023/10/29 03:33:51;;;;;;;0.38;0.38;;;;;;;8.90;100.00;97088.78;5047711;28;20401;-44
2023/10/29 03:36:18;;;;;;;1.38;0.65;;;;;;;8.84;100.00;97087.72;5048640;28;20048;-43
2023/10/29 03:38:44;;;;;;;1.13;0.77;;;;;;;8.78;100.00;97089.41;5047078;28;20071;-44
2023/10/29 03:41:19;;;;;;;0.73;0.70;;;;;;;8.74;100.00;97085.16;5047667;28;20033;-45
2023/10/29 03:43:46;;;;;;;0.68;0.57;;;;;;;8.71;100.00;97088.78;5038473;28;20049;-44
2023/10/29 03:46:13;;;;;;;1.13;0.60;;;;;;;8.64;100.00;97077.84;5047549;28;20135;-44
2023/10/29 03:48:44;;;;;;;2.05;0.60;;;;;;;8.59;100.00;97081.88;5047913;28;20033;-46
2023/10/29 03:51:12;;;;;;;1.02;0.55;;;;;;;8.56;100.00;97088.22;5046448;28;20041;-43
2023/10/29 03:53:39;;;;;;;0.40;0.40;;;;;;;8.48;100.00;97079.31;5046999;28;20126;-43
2023/10/29 03:56:07;;;;;;;1.08;0.70;;;;;;;8.46;100.00;97078.16;5048025;28;20041;-44
2023/10/29 03:58:33;;;;;;;4.10;0.93;;;;;;;8.42;100.00;97089.25;5047340;28;20067;-44
2023/10/29 04:01:01;;;;;;;0.80;0.60;;;;;;;8.39;100.00;97089.31;5047237;28;20053;-44
2023/10/29 04:03:28;;;;;;;0.60;0.60;;;;;;;8.31;100.00;97082.38;5047034;28;20041;-45
2023/10/29 04:05:56;;;;;;;2.17;0.65;;;;;;;8.27;100.00;97087.94;5047937;28;20068;-47
2023/10/29 04:08:23;;;;;;;1.05;0.77;;;;;;;8.24;100.00;97093.47;5047365;28;20530;-47
2023/10/29 04:10:50;;;;;;;1.73;0.57;;;;;;;8.23;100.00;97094.69;5047559;28;20041;-44
2023/10/29 04:13:18;;;;;;;1.02;0.60;;;;;;;8.20;100.00;97103.78;5046344;28;20041;-45
2023/10/29 04:15:44;;;;;;;0.90;0.70;;;;;;;8.17;100.00;97104.59;5046808;28;20048;-45
2023/10/29 04:18:11;;;;;;;4.47;0.88;;;;;;;8.15;100.00;97113.31;5047737;28;20045;-49
2023/10/29 04:20:38;;;;;;;3.17;0.85;;;;;;;8.12;100.00;97116.09;5046645;28;20033;-48
2023/10/29 04:23:05;;;;;;;1.17;0.50;;;;;;;8.08;100.00;97118.13;5047143;28;20041;-46
2023/10/29 04:25:32;;;;;;;3.90;0.88;;;;;;;8.05;100.00;97118.97;5046754;28;20135;-47
2023/10/29 04:27:58;;;;;;;1.40;0.60;;;;;;;8.03;100.00;97127.63;5046872;28;20498;-46
2023/10/29 04:30:25;;;;;;;2.65;0.70;;;;;;;8.03;100.00;97130.38;5046807;28;20110;-45
2023/10/29 04:32:52;;;;;;;2.00;0.68;;;;;;;8.01;100.00;97135.53;5046958;28;20782;-44
2023/10/29 04:35:19;;;;;;;3.03;0.60;;;;;;;7.97;100.00;97132.81;5046695;28;20032;-44
2023/10/29 04:37:46;;;;;;;1.90;0.82;;;;;;;7.99;100.00;97144.19;5046477;28;20827;-44
2023/10/29 04:40:13;;;;;;;1.27;0.65;;;;;;;8.01;100.00;97145.78;5046482;28;20115;-44
2023/10/29 04:42:40;;;;;;;1.02;0.80;;;;;;;7.99;100.00;97157.22;5046217;28;20048;-44
2023/10/29 04:45:07;;;;;;;1.52;1.00;;;;;;;7.95;100.00;97162.78;5041172;28;20045;-46
2023/10/29 04:47:34;;;;;;;3.83;1.10;;;;;;;7.93;100.00;97173.44;5046718;28;20220;-46
2023/10/29 04:50:01;;;;;;;1.13;0.63;;;;;;;7.92;100.00;97171.06;5046393;28;20045;-45
2023/10/29 04:52:28;;;;;;;2.15;0.95;;;;;;;7.90;100.00;97177.00;5046482;28;20819;-45
2023/10/29 04:54:55;;;;;;;3.45;1.10;;;;;;;7.88;100.00;97168.38;5045858;28;20075;-44
2023/10/29 04:57:21;;;;;;;2.60;0.80;;;;;;;7.87;100.00;97168.78;5046354;28;20151;-46
2023/10/29 04:59:48;;;;;;;3.30;0.75;;;;;;;7.85;100.00;97165.66;5045399;28;20041;-46
2023/10/29 05:02:15;;;;;;;1.88;0.73;;;;;;;7.80;100.00;97168.88;5044654;28;20613;-47
2023/10/29 05:04:42;;;;;;;2.03;0.65;;;;;;;7.75;100.00;97172.88;5057315;28;20040;-44
2023/10/29 05:07:09;;;;;;;4.28;0.90;;;;;;;7.69;100.00;97168.25;5041551;28;20045;-44
2023/10/29 05:09:36;;;;;;;1.92;0.90;;;;;;;7.64;100.00;97158.47;5046061;28;20082;-44
2023/10/29 05:12:03;;;;;;;2.20;1.08;;;;;;;7.60;100.00;97165.22;5046360;28;20075;-46
2023/10/29 05:14:29;;;;;;;2.13;0.80;;;;;;;7.55;100.00;97162.91;5045993;28;20033;-44
2023/10/29 05:16:57;;;;;;;3.83;0.70;;;;;;;7.54;100.00;97173.16;5045521;28;20124;-45
2023/10/29 05:19:24;;;;;;;1.25;0.88;;;;;;;7.48;100.00;97166.53;5040371;28;20818;-44
2023/10/29 05:21:51;;;;;;;1.60;0.70;;;;;;;7.48;100.00;97165.75;5046616;28;20090;-45
2023/10/29 05:24:18;;;;;;;1.88;0.75;;;;;;;7.50;100.00;97171.63;5045282;28;20044;-45
2023/10/29 05:26:45;;;;;;;3.80;0.90;;;;;;;7.47;100.00;97156.72;5045940;28;20628;-45
2023/10/29 05:29:11;;;;;;;1.63;0.70;;;;;;;7.46;100.00;97154.38;5046162;28;20049;-47
2023/10/29 05:31:38;;;;;;;2.38;0.70;;;;;;;7.48;100.00;97161.03;5043404;28;20041;-45
2023/10/29 05:34:05;;;;;;;1.25;0.80;;;;;;;7.51;100.00;97151.16;5046339;28;20037;-44
2023/10/29 05:36:32;;;;;;;2.25;0.50;;;;;;;7.53;100.00;97160.56;5046176;28;20045;-44
2023/10/29 05:38:59;;;;;;;1.42;0.70;;;;;;;7.52;100.00;97158.25;5044495;28;20033;-46
2023/10/29 05:41:25;;;;;;;0.50;0.50;;;;;;;7.51;100.00;97154.72;5045452;28;20486;-45
2023/10/29 05:43:52;;;;;;;1.10;0.50;;;;;;;7.52;100.00;97161.75;5039980;28;20471;-45
2023/10/29 05:46:22;;;;;;;1.52;0.80;;;;;;;7.50;100.00;97161.38;5046079;28;20048;-46
2023/10/29 05:48:50;;;;;;;1.27;0.95;;;;;;;7.46;100.00;97171.69;5045518;28;20099;-48
2023/10/29 05:51:20;;;;;;;1.95;0.55;;;;;;;7.44;100.00;97163.03;5046756;28;20083;-48
2023/10/29 05:53:48;;;;;;;0.50;0.50;;;;;;;7.40;100.00;97151.28;5046782;28;20056;-50
2023/10/29 05:56:18;;;;;;;2.40;0.68;;;;;;;7.33;100.00;97159.66;5049755;28;20160;-46
2023/10/29 05:58:44;;;;;;;2.72;1.45;;;;;;;7.30;100.00;97157.72;5048647;28;20143;-45
2023/10/29 06:01:11;;;;;;;1.88;0.47;;;;;;;7.27;100.00;97158.53;5047411;28;20479;-47
2023/10/29 06:03:38;;;;;;;2.95;0.65;;;;;;;7.28;100.00;97149.09;5049626;28;20049;-45
2023/10/29 06:06:05;;;;;;;0.88;0.70;;;;;;;7.28;100.00;97157.34;5048953;28;20063;-46
2023/10/29 06:08:32;;;;;;;4.03;0.60;;;;;;;7.28;100.00;97165.59;5050097;28;20037;-45
2023/10/29 06:10:59;;;;;;;0.60;0.40;;;;;;;7.24;100.00;97159.34;5048878;28;20443;-46
2023/10/29 06:13:26;;;;;;;1.83;0.70;;;;;;;7.20;100.00;97155.88;5049160;28;20055;-44
2023/10/29 06:15:53;;;;;;;0.85;0.50;;;;;;;7.18;100.00;97166.47;5047628;28;20051;-45
2023/10/29 06:18:20;;;;;;;1.25;0.90;;;;;;;7.16;100.00;97164.16;5049851;28;20068;-45
2023/10/29 06:20:46;;;;;;;1.85;0.45;;;;;;;7.17;100.00;97159.44;5048646;28;20491;-48
2023/10/29 06:23:13;;;;;;;1.08;0.50;;;;;;;7.11;100.00;97158.31;5047470;28;20048;-44
2023/10/29 06:25:41;;;;;;;2.80;0.60;;;;;;;7.09;100.00;97169.72;5047888;28;20060;-44
2023/10/29 06:28:07;;;;;;;0.88;0.63;;;;;;;7.07;100.00;97174.09;5048565;28;20103;-45
2023/10/29 06:30:34;;;;;;;1.98;0.75;;;;;;;7.09;100.00;97166.97;5048454;28;20033;-44
2023/10/29 06:33:02;;;;;;;1.42;0.65;;;;;;;7.04;100.00;97172.16;5049255;28;20088;-47
2023/10/29 06:35:29;;;;;;;2.85;0.68;;;;;;;6.98;100.00;97177.31;5048915;28;20048;-46
2023/10/29 06:37:55;;;;;;;2.60;1.05;;;;;;;6.96;100.00;97179.69;5049277;28;20065;-45
2023/10/29 06:40:24;;;;;;;1.00;0.60;;;;;;;6.91;100.00;97173.84;5048680;28;20513;-46
2023/10/29 06:42:51;;;;;;;0.75;0.50;;;;;;;6.87;100.00;97184.09;5048220;28;20040;-49
2023/10/29 06:45:17;;;;;;;1.40;0.70;;;;;;;6.86;100.00;97188.03;5040014;28;20396;-48
2023/10/29 06:47:44;;;;;;;1.67;1.00;;;;;;;6.88;100.00;97196.66;5048532;28;20624;-47
2023/10/29 06:50:11;;;;;;;3.00;0.75;;;;;;;6.87;100.00;97200.56;5047967;28;20132;-44
2023/10/29 06:52:38;;;;;;;0.85;0.60;;;;;;;6.86;100.00;97204.53;5047892;28;20040;-44
2023/10/29 06:55:06;;;;;;;2.25;0.40;;;;;;;6.84;100.00;97198.63;5049005;28;20120;-44
2023/10/29 06:57:33;;;;;;;3.00;0.45;;;;;;;6.82;100.00;97190.03;5047567;28;20040;-51
2023/10/29 07:00:00;;;;;;;0.88;0.60;;;;;;;6.81;100.00;97197.47;5037198;28;20079;-44
2023/10/29 07:02:27;;;;;;;3.17;0.68;;;;;;;6.80;100.00;97204.19;5046967;28;20048;-44
2023/10/29 07:04:54;;;;;;;1.33;0.95;;;;;;;6.81;100.00;97213.19;5047147;28;20047;-44
2023/10/29 07:07:21;;;;;;;3.25;0.93;;;;;;;6.83;100.00;97210.84;5047941;28;20033;-48
2023/10/29 07:09:48;;;;;;;2.33;1.20;;;;;;;6.84;100.00;97207.66;5048320;28;20394;-44
2023/10/29 07:12:16;;;;;;;1.65;0.47;;;;;;;6.86;100.00;97210.03;5047758;28;20045;-44
2023/10/29 07:14:44;;;;;;;1.52;0.90;;;;;;;6.82;100.00;97220.25;5047453;28;20045;-46
2023/10/29 07:17:11;;;;;;;3.50;0.70;;;;;;;6.80;100.00;97217.94;5047000;28;20812;-45
2023/10/29 07:19:38;;;;;;;4.22;1.00;;;;;;;6.75;100.00;97221.88;5048025;28;20052;-44
2023/10/29 07:22:05;;;;;;;1.80;0.82;;;;;;;6.74;100.00;97222.28;5048188;28;20044;-44
2023/10/29 07:24:35;;;;;;;1.63;1.17;;;;;;;6.73;100.00;97224.25;5040583;28;20099;-48
2023/10/29 07:27:02;;;;;;;4.68;1.65;;;;;;;6.73;100.00;97240.75;5048367;28;20376;-45
2023/10/29 07:29:29;;;;;;;2.88;1.00;;;;;;;6.78;100.00;97241.53;5048182;28;20049;-44
2023/10/29 07:31:56;;;;;;;4.38;1.75;;;;;;;6.82;100.00;97236.75;5047508;28;20068;-44
2023/10/29 07:34:23;;;;;;;2.50;1.00;;;;;;;6.84;100.00;97245.38;5038267;28;20403;-44
2023/10/29 07:36:50;;;;;;;1.83;1.00;;;;;;;6.85;100.00;97244.19;5047358;28;20045;-44
2023/10/29 07:39:16;;;;;;;1.45;0.90;;;;;;;6.89;100.00;97239.44;5048394;28;20136;-45
2023/10/29 07:41:43;;;;;;;2.65;0.85;;;;;;;6.95;100.00;97240.56;5047297;28;20072;-46
2023/10/29 07:44:10;;;;;;;2.70;1.10;;;;;;;6.97;100.00;97246.44;5043887;28;20037;-44
2023/10/29 07:46:37;;;;;;;2.33;0.60;;;;;;;7.02;100.00;97240.50;5047535;28;20045;-45
2023/10/29 07:49:03;;;;;;;2.15;0.80;;;;;;;7.02;100.00;97243.25;5046707;28;20395;-47
2023/10/29 07:51:30;;;;;;;3.85;0.70;;;;;;;7.05;100.00;97245.19;5046813;28;20051;-47
2023/10/29 07:53:57;;;;;;;2.13;0.85;;;;;;;7.05;100.00;97240.47;5048362;28;20105;-46
2023/10/29 07:56:26;;;;;;;2.05;0.50;;;;;;;7.06;100.00;97242.06;5051222;28;20041;-45
2023/10/29 07:58:55;;;;;;;2.85;1.10;;;;;;;7.08;100.00;97239.66;5048364;28;20037;-45
2023/10/29 08:01:23;;;;;;;1.90;0.73;;;;;;;7.09;100.00;97234.97;5047562;28;20669;-44
2023/10/29 08:03:50;;;;;;;4.50;1.02;;;;;;;7.13;100.00;97238.44;5047427;28;20048;-44
2023/10/29 08:06:17;;;;;;;4.03;0.93;;;;;;;7.18;100.00;97233.28;5050875;28;20372;-44
2023/10/29 08:08:44;;;;;;;8.48;1.35;;;;;;;7.23;100.00;97234.81;5048112;28;20040;-44
2023/10/29 08:11:21;;;;;;;3.20;1.40;;;;;;;7.28;100.00;97231.63;5032902;28;20055;-44
2023/10/29 08:13:48;;;;;;;5.18;1.10;;;;;;;7.31;100.00;97230.78;5047873;28;20053;-44
2023/10/29 08:16:15;;;;;;;3.20;0.93;;;;;;;7.35;100.00;97237.06;5047434;28;20048;-44
2023/10/29 08:18:41;;;;;;;3.35;1.50;;;;;;;7.40;100.00;97250.38;5047536;28;20581;-45
2023/10/29 08:21:08;;;;;;;4.88;1.38;;;;;;;7.49;100.00;97242.41;5047130;28;20056;-43
2023/10/29 08:23:35;;;;;;;3.28;1.23;;;;;;;7.57;100.00;97254.88;5051142;28;20684;-44
2023/10/29 08:26:03;;;;;;;4.15;1.17;;;;;;;7.63;100.00;97253.25;5059314;28;20056;-46
2023/10/29 08:28:30;;;;;;;2.88;1.10;;;;;;;7.67;100.00;97254.00;5046576;28;20110;-43
2023/10/29 08:30:58;;;;;;;4.25;1.10;;;;;;;7.75;100.00;97255.50;5045704;28;20466;-44
2023/10/29 08:33:26;;;;;;;2.67;0.95;;;;;;;7.80;100.00;97257.00;5046870;28;20445;-44
2023/10/29 08:35:53;;;;;;;1.63;0.95;;;;;;;7.86;100.00;97258.13;5050178;28;20049;-47
2023/10/29 08:38:20;;;;;;;2.17;1.05;;;;;;;7.90;100.00;97251.38;5045635;28;20065;-45
2023/10/29 08:40:47;;;;;;;1.95;0.93;;;;;;;7.93;100.00;97252.50;5044709;28;20103;-44
2023/10/29 08:43:14;;;;;;;2.67;0.82;;;;;;;7.95;100.00;97256.41;5046651;28;20041;-45
2023/10/29 08:45:41;;;;;;;6.90;2.60;;;;;;;7.99;100.00;97251.63;5048243;28;20155;-44
2023/10/29 08:48:10;;;;;;;2.83;1.35;;;;;;;8.04;100.00;97255.13;5046485;28;20758;-43
2023/10/29 08:50:37;;;;;;;31.35;5.90;;;;;;;8.07;100.00;97257.06;5046547;28;20045;-45
2023/10/29 08:53:04;;;;;;;3.90;2.55;;;;;;;8.11;100.00;97260.53;5046627;28;20068;-42
2023/10/29 08:55:34;;;;;;;5.32;1.17;;;;;;;8.15;100.00;97258.53;5044954;28;20041;-43
2023/10/29 08:58:00;;;;;;;2.28;1.10;;;;;;;8.17;100.00;97262.44;5042793;28;20482;-46
2023/10/29 09:00:27;;;;;;;3.55;1.25;;;;;;;8.20;100.00;97269.09;5046048;28;20041;-46
2023/10/29 09:03:14;;;;;;;8.52;1.17;;;;;;;8.20;100.00;97269.88;5045801;28;20551;-42
2023/10/29 09:05:42;;;;;;;5.80;1.50;;;;;;;8.18;100.00;97272.25;5045429;28;20143;-43
2023/10/29 09:08:10;;;;;;;8.98;1.52;;;;;;;8.20;100.00;97277.38;5050806;28;20037;-45
2023/10/29 09:10:41;;;;;;;2.78;1.77;;;;;;;8.21;100.00;97270.63;5044980;28;20044;-46
2023/10/29 09:13:09;;;;;;;8.70;2.08;;;;;;;8.22;100.00;97273.00;5046466;28;20037;-42
2023/10/29 09:15:36;;;;;;;5.18;2.05;;;;;;;8.26;100.00;97276.47;5046091;28;20040;-42
2023/10/29 09:18:03;;;;;;;9.38;1.88;;;;;;;8.29;100.00;97269.38;5044965;28;20666;-44
2023/10/29 09:20:32;;;;;;;3.83;1.60;;;;;;;8.32;100.00;97272.09;5045993;28;20083;-42
2023/10/29 09:22:59;;;;;;;5.53;1.98;;;;;;;8.33;100.00;97268.16;5043769;28;20048;-42
2023/10/29 09:25:25;;;;;;;6.10;2.15;;;;;;;8.35;100.00;97260.25;5045395;28;20411;-43
2023/10/29 09:27:53;;;;;;;4.40;1.83;;;;;;;8.36;100.00;97255.53;5040245;28;20103;-42
2023/10/29 09:30:19;;;;;;;2.25;1.40;;;;;;;8.38;100.00;97269.66;5042332;28;20041;-42
2023/10/29 09:32:46;;;;;;;3.38;1.60;;;;;;;8.40;100.00;97270.81;5044526;28;20044;-45
2023/10/29 09:35:13;;;;;;;4.22;2.17;;;;;;;8.43;100.00;97269.19;5045132;28;20033;-42
2023/10/29 09:37:40;;;;;;;4.43;1.80;;;;;;;8.45;100.00;97270.34;5044514;28;20033;-44
2023/10/29 09:40:09;;;;;;;4.63;1.20;;;;;;;8.46;100.00;97265.63;5044299;28;20173;-42
2023/10/29 09:42:43;;;;;;;5.07;1.42;;;;;;;8.50;100.00;97277.34;5040889;28;20045;-43
2023/10/29 09:45:12;;;;;;;10.45;1.63;;;;;;;8.53;100.00;97271.81;5035273;28;20050;-44
2023/10/29 09:47:39;;;;;;;4.13;1.25;;;;;;;8.59;100.00;97277.63;5045323;28;20051;-45
2023/10/29 09:50:08;;;;;;;7.28;2.10;;;;;;;8.64;100.00;97279.91;5044954;28;20033;-44
2023/10/29 09:52:36;;;;;;;5.95;1.70;;;;;;;8.68;100.00;97280.66;5043809;28;20071;-42
2023/10/29 09:55:04;;;;;;;7.85;2.13;;;;;;;8.71;100.00;97273.53;5042178;28;20045;-44
2023/10/29 09:57:31;;;;;;;3.00;1.83;;;;;;;8.74;100.00;97273.47;5045012;28;20037;-44
2023/10/29 09:59:59;;;;;;;8.23;2.67;;;;;;;8.78;100.00;97263.16;5033832;28;20044;-44
2023/10/29 10:02:28;;;;;;;5.75;2.03;;;;;;;8.85;100.00;97257.53;5052334;28;20056;-45
2023/10/29 10:04:55;;;;;;;8.32;2.35;;;;;;;8.93;100.00;97267.25;5044062;28;20041;-45
2023/10/29 10:07:22;;;;;;;4.63;2.50;;;;;;;9.00;100.00;97256.09;5044066;28;20041;-45
2023/10/29 10:09:57;;;;;;;8.20;2.25;;;;;;;9.10;100.00;97251.63;5042927;28;20380;-43
2023/10/29 10:12:25;;;;;;;4.50;1.85;;;;;;;9.18;100.00;97262.13;5042749;28;20063;-44
2023/10/29 10:15:03;;;;;;;12.77;3.30;;;;;;;9.26;100.00;97251.75;5045411;28;20059;-45
2023/10/29 10:17:30;;;;;;;11.05;2.50;;;;;;;9.36;100.00;97259.03;5039698;28;20564;-43
2023/10/29 10:20:07;;;;;;;7.13;2.42;;;;;;;9.47;100.00;97256.88;5031501;28;20055;-45
2023/10/29 10:22:35;;;;;;;10.63;2.83;;;;;;;9.58;100.00;97251.16;5042892;28;20494;-43
2023/10/29 10:25:03;;;;;;;6.40;1.48;;;;;;;9.70;100.00;97247.75;5044353;28;20041;-45
2023/10/29 10:27:30;;;;;;;7.63;2.20;;;;;;;9.84;100.00;97258.53;5043565;28;20037;-43
2023/10/29 10:29:57;;;;;;;3.55;1.88;;;;;;;9.95;100.00;97253.59;5049195;28;20041;-46
2023/10/29 10:32:24;;;;;;;3.80;1.80;;;;;;;10.04;100.00;97264.03;5046032;28;20041;-43
2023/10/29 10:34:51;;;;;;;5.57;2.20;;;;;;;10.10;100.00;97256.81;5051759;28;20554;-46
2023/10/29 10:37:18;;;;;;;3.90;1.73;;;;;;;10.13;100.00;97265.09;5050643;28;20029;-42
2023/10/29 10:39:45;;;;;;;9.75;1.23;;;;;;;10.15;100.00;97261.88;5050470;28;20802;-47
2023/10/29 10:42:12;;;;;;;7.38;1.80;;;;;;;10.16;100.00;97263.44;5047782;28;20132;-43
2023/10/29 10:44:42;;;;;;;9.68;1.40;;;;;;;10.15;100.00;97254.38;5047347;28;20127;-44
2023/10/29 10:47:10;;;;;;;9.00;1.20;;;;;;;10.17;100.00;97254.72;5048471;28;20909;-43
2023/10/29 10:49:41;;;;;;;6.22;1.67;;;;;;;10.20;100.00;97259.41;5046731;28;20036;-43
2023/10/29 10:52:10;;;;;;;4.93;2.45;;;;;;;10.25;100.00;97244.28;5046275;28;20095;-43
2023/10/29 10:54:39;;;;;;;7.85;1.50;;;;;;;10.30;100.00;97244.56;5047005;28;20110;-43
2023/10/29 10:57:07;;;;;;;14.20;2.10;;;;;;;10.35;100.00;97244.03;5047571;28;20033;-43
2023/10/29 10:59:35;;;;;;;10.93;2.58;;;;;;;10.39;100.00;97243.97;5045599;28;20033;-43
2023/10/29 11:02:07;;;;;;;6.15;1.58;;;;;;;10.39;100.00;97238.44;5046843;28;20072;-44
2023/10/29 11:04:34;;;;;;;6.50;1.30;;;;;;;10.44;100.00;97237.94;5046620;28;20036;-43
2023/10/29 11:07:01;;;;;;;10.35;1.63;;;;;;;10.50;100.00;97243.75;5038990;28;20447;-44
2023/10/29 11:09:28;;;;;;;8.55;1.42;;;;;;;10.57;100.00;97226.97;5046424;28;20073;-44
2023/10/29 11:11:56;;;;;;;12.75;2.17;;;;;;;10.68;100.00;97235.81;5047539;28;20068;-44
2023/10/29 11:14:24;;;;;;;8.85;1.58;;;;;;;10.75;100.00;97241.97;5046584;28;20047;-44
2023/10/29 11:16:55;;;;;;;8.55;2.33;;;;;;;10.81;100.00;97234.69;5047074;28;20036;-44
2023/10/29 11:23:09;;;;;;;7.50;1.50;;;;;;;10.84;100.00;97236.63;5038586;28;20457;-48
2023/10/29 11:29:41;;;;;;;14.10;1.80;;;;;;;10.64;100.00;97238.69;4954317;28;20054;-44
2023/10/29 11:32:26;;;;;;;4.85;2.10;;;;;;;10.54;100.00;97250.75;4961085;28;20102;-46
2023/10/29 11:35:14;;;;;;;11.95;2.35;;;;;;;10.48;100.00;97240.63;4962325;28;20047;-42
2023/10/29 11:37:42;;;;;;;7.35;1.77;;;;;;;10.42;100.00;97226.53;4964574;28;20093;-45
2023/10/29 11:40:24;;;;;;;12.88;2.50;;;;;;;10.38;100.00;97234.13;4968044;28;20441;-41